Rhodes, Michigan
Current Conditions -  °F | °C
As of 3:12 AM on Sunday 26 Oct 2014 (Local Time) from KIKW Reporting Station
Clear Clear  
Wind Chill: 45°   Ceiling: Unl
Heat Index: 45°   Visibility: 10mi
Dew Point: 31°   Wind: 3mph
Humidity: 57%   Direction: 250°WSW
Pressure: 29.84"   Gusts: NA
Location:  43.9°N, 84.18°W
Report Text: KIKW 260712Z AUTO 25003KT 10SM CLR 07/M01 A2984 RMK AO2 T00721008
Loading
Personal Weather Stations






























Interactive Weather Map
Tropical Storm Tracking
New forecast layout! Learn more

10-Day Weather Forecast

Advertisements
Track Severe Weather on mobile